sensor_id;sensor_type;location;lat;lon;timestamp;P1;durP1;ratioP1;P2;durP2;ratioP2
7334;SDS011;3708;42.632;23.378;2024-03-06T00:00:04;21.13;;;10.52;;
7334;SDS011;3708;42.632;23.378;2024-03-06T00:02:32;20.48;;;10.00;;
7334;SDS011;3708;42.632;23.378;2024-03-06T00:04:57;25.88;;;13.07;;
7334;SDS011;3708;42.632;23.378;2024-03-06T00:07:24;25.88;;;13.25;;
7334;SDS011;3708;42.632;23.378;2024-03-06T00:09:49;28.27;;;13.40;;
7334;SDS011;3708;42.632;23.378;2024-03-06T00:12:15;23.10;;;11.38;;
7334;SDS011;3708;42.632;23.378;2024-03-06T00:14:41;24.70;;;11.50;;
7334;SDS011;3708;42.632;23.378;2024-03-06T00:17:07;22.90;;;12.30;;
7334;SDS011;3708;42.632;23.378;2024-03-06T00:19:34;21.83;;;11.73;;
7334;SDS011;3708;42.632;23.378;2024-03-06T00:22:00;30.98;;;13.48;;
7334;SDS011;3708;42.632;23.378;2024-03-06T00:24:26;22.17;;;11.38;;
7334;SDS011;3708;42.632;23.378;2024-03-06T00:26:52;29.35;;;12.80;;
7334;SDS011;3708;42.632;23.378;2024-03-06T00:29:18;27.73;;;10.70;;
7334;SDS011;3708;42.632;23.378;2024-03-06T00:31:44;24.85;;;10.98;;
7334;SDS011;3708;42.632;23.378;2024-03-06T00:34:10;28.70;;;10.75;;
7334;SDS011;3708;42.632;23.378;2024-03-06T00:36:39;18.15;;;9.75;;
7334;SDS011;3708;42.632;23.378;2024-03-06T00:39:05;20.85;;;8.68;;
7334;SDS011;3708;42.632;23.378;2024-03-06T00:41:31;22.98;;;10.85;;
7334;SDS011;3708;42.632;23.378;2024-03-06T00:43:57;23.80;;;11.13;;
7334;SDS011;3708;42.632;23.378;2024-03-06T00:46:22;24.58;;;11.13;;
7334;SDS011;3708;42.632;23.378;2024-03-06T00:48:48;18.52;;;10.60;;
7334;SDS011;3708;42.632;23.378;2024-03-06T00:51:14;33.00;;;11.85;;
7334;SDS011;3708;42.632;23.378;2024-03-06T00:53:39;29.13;;;11.70;;
7334;SDS011;3708;42.632;23.378;2024-03-06T00:56:07;23.00;;;11.90;;
7334;SDS011;3708;42.632;23.378;2024-03-06T00:58:32;25.00;;;10.57;;
7334;SDS011;3708;42.632;23.378;2024-03-06T01:00:58;27.48;;;11.85;;
7334;SDS011;3708;42.632;23.378;2024-03-06T01:03:24;23.80;;;12.32;;
7334;SDS011;3708;42.632;23.378;2024-03-06T01:05:50;22.75;;;11.43;;
7334;SDS011;3708;42.632;23.378;2024-03-06T01:08:17;25.98;;;12.73;;
7334;SDS011;3708;42.632;23.378;2024-03-06T01:10:43;25.05;;;11.95;;
7334;SDS011;3708;42.632;23.378;2024-03-06T01:13:09;26.42;;;12.45;;
7334;SDS011;3708;42.632;23.378;2024-03-06T01:15:36;24.92;;;11.25;;
7334;SDS011;3708;42.632;23.378;2024-03-06T01:18:02;26.70;;;12.18;;
7334;SDS011;3708;42.632;23.378;2024-03-06T01:20:28;17.38;;;9.50;;
7334;SDS011;3708;42.632;23.378;2024-03-06T01:22:54;22.75;;;10.82;;
7334;SDS011;3708;42.632;23.378;2024-03-06T01:25:20;26.40;;;12.10;;
7334;SDS011;3708;42.632;23.378;2024-03-06T01:27:47;29.33;;;12.65;;
7334;SDS011;3708;42.632;23.378;2024-03-06T01:30:14;26.50;;;12.05;;
7334;SDS011;3708;42.632;23.378;2024-03-06T01:32:40;20.95;;;10.43;;
7334;SDS011;3708;42.632;23.378;2024-03-06T01:35:06;26.27;;;11.80;;
7334;SDS011;3708;42.632;23.378;2024-03-06T01:37:32;27.13;;;11.32;;
7334;SDS011;3708;42.632;23.378;2024-03-06T01:39:58;22.55;;;10.65;;
7334;SDS011;3708;42.632;23.378;2024-03-06T01:42:23;24.63;;;10.38;;
7334;SDS011;3708;42.632;23.378;2024-03-06T01:44:49;24.73;;;11.32;;
7334;SDS011;3708;42.632;23.378;2024-03-06T01:47:15;20.17;;;9.88;;
7334;SDS011;3708;42.632;23.378;2024-03-06T01:49:41;23.88;;;10.95;;
7334;SDS011;3708;42.632;23.378;2024-03-06T01:52:07;29.88;;;12.50;;
7334;SDS011;3708;42.632;23.378;2024-03-06T01:54:37;28.08;;;12.20;;
7334;SDS011;3708;42.632;23.378;2024-03-06T01:57:03;27.50;;;12.15;;
7334;SDS011;3708;42.632;23.378;2024-03-06T01:59:30;20.42;;;11.00;;
7334;SDS011;3708;42.632;23.378;2024-03-06T02:01:56;21.90;;;11.75;;
7334;SDS011;3708;42.632;23.378;2024-03-06T02:04:21;21.73;;;10.60;;
7334;SDS011;3708;42.632;23.378;2024-03-06T02:06:49;23.77;;;10.65;;
7334;SDS011;3708;42.632;23.378;2024-03-06T02:09:14;22.50;;;11.05;;
7334;SDS011;3708;42.632;23.378;2024-03-06T02:11:40;25.60;;;11.80;;
7334;SDS011;3708;42.632;23.378;2024-03-06T02:14:07;27.63;;;10.32;;
7334;SDS011;3708;42.632;23.378;2024-03-06T02:16:35;17.45;;;9.50;;
7334;SDS011;3708;42.632;23.378;2024-03-06T02:19:01;26.50;;;11.52;;
7334;SDS011;3708;42.632;23.378;2024-03-06T02:21:28;23.48;;;10.15;;
7334;SDS011;3708;42.632;23.378;2024-03-06T02:23:54;24.05;;;10.43;;
7334;SDS011;3708;42.632;23.378;2024-03-06T02:26:19;21.60;;;10.65;;
7334;SDS011;3708;42.632;23.378;2024-03-06T02:28:55;25.38;;;11.02;;
7334;SDS011;3708;42.632;23.378;2024-03-06T02:31:21;18.67;;;9.15;;
7334;SDS011;3708;42.632;23.378;2024-03-06T02:33:48;18.80;;;9.18;;
7334;SDS011;3708;42.632;23.378;2024-03-06T02:36:17;24.17;;;10.65;;
7334;SDS011;3708;42.632;23.378;2024-03-06T02:38:43;18.75;;;9.50;;
7334;SDS011;3708;42.632;23.378;2024-03-06T02:41:10;21.48;;;10.25;;
7334;SDS011;3708;42.632;23.378;2024-03-06T02:43:36;22.38;;;10.60;;
7334;SDS011;3708;42.632;23.378;2024-03-06T02:48:28;28.52;;;9.80;;
7334;SDS011;3708;42.632;23.378;2024-03-06T02:50:54;17.33;;;8.77;;
7334;SDS011;3708;42.632;23.378;2024-03-06T02:55:46;13.00;;;7.68;;
7334;SDS011;3708;42.632;23.378;2024-03-06T02:58:12;16.85;;;7.32;;
7334;SDS011;3708;42.632;23.378;2024-03-06T03:00:41;14.15;;;7.45;;
7334;SDS011;3708;42.632;23.378;2024-03-06T03:03:06;20.70;;;7.30;;
7334;SDS011;3708;42.632;23.378;2024-03-06T03:05:32;17.50;;;7.75;;
7334;SDS011;3708;42.632;23.378;2024-03-06T03:07:58;11.55;;;6.85;;
7334;SDS011;3708;42.632;23.378;2024-03-06T03:10:24;16.88;;;8.15;;
7334;SDS011;3708;42.632;23.378;2024-03-06T03:12:50;17.13;;;7.63;;
7334;SDS011;3708;42.632;23.378;2024-03-06T03:15:16;17.35;;;8.52;;
7334;SDS011;3708;42.632;23.378;2024-03-06T03:17:41;23.70;;;9.35;;
7334;SDS011;3708;42.632;23.378;2024-03-06T03:20:07;17.35;;;8.55;;
7334;SDS011;3708;42.632;23.378;2024-03-06T03:22:36;16.40;;;7.18;;
7334;SDS011;3708;42.632;23.378;2024-03-06T03:25:03;15.82;;;8.07;;
7334;SDS011;3708;42.632;23.378;2024-03-06T03:27:32;15.57;;;8.30;;
7334;SDS011;3708;42.632;23.378;2024-03-06T03:29:58;19.13;;;9.23;;
7334;SDS011;3708;42.632;23.378;2024-03-06T03:32:24;16.73;;;7.82;;
7334;SDS011;3708;42.632;23.378;2024-03-06T03:34:49;18.25;;;9.13;;
7334;SDS011;3708;42.632;23.378;2024-03-06T03:37:15;14.60;;;7.63;;
7334;SDS011;3708;42.632;23.378;2024-03-06T03:39:40;15.95;;;8.07;;
7334;SDS011;3708;42.632;23.378;2024-03-06T03:42:07;23.40;;;11.05;;
7334;SDS011;3708;42.632;23.378;2024-03-06T03:44:33;18.02;;;9.30;;
7334;SDS011;3708;42.632;23.378;2024-03-06T03:46:58;19.65;;;9.23;;
7334;SDS011;3708;42.632;23.378;2024-03-06T03:49:24;16.08;;;8.25;;
7334;SDS011;3708;42.632;23.378;2024-03-06T03:51:49;19.33;;;9.07;;
7334;SDS011;3708;42.632;23.378;2024-03-06T03:54:15;18.70;;;9.52;;
7334;SDS011;3708;42.632;23.378;2024-03-06T03:56:41;20.08;;;9.95;;
7334;SDS011;3708;42.632;23.378;2024-03-06T03:59:06;23.08;;;11.45;;
7334;SDS011;3708;42.632;23.378;2024-03-06T04:01:32;26.98;;;11.38;;
7334;SDS011;3708;42.632;23.378;2024-03-06T04:03:58;20.88;;;10.20;;
7334;SDS011;3708;42.632;23.378;2024-03-06T04:06:23;20.55;;;10.57;;
7334;SDS011;3708;42.632;23.378;2024-03-06T04:08:49;22.50;;;10.50;;
7334;SDS011;3708;42.632;23.378;2024-03-06T04:11:14;18.15;;;10.02;;
7334;SDS011;3708;42.632;23.378;2024-03-06T04:13:40;19.73;;;9.60;;
7334;SDS011;3708;42.632;23.378;2024-03-06T04:16:06;20.83;;;9.07;;
7334;SDS011;3708;42.632;23.378;2024-03-06T04:18:32;14.27;;;7.63;;
7334;SDS011;3708;42.632;23.378;2024-03-06T04:21:01;17.50;;;9.07;;
7334;SDS011;3708;42.632;23.378;2024-03-06T04:23:29;18.65;;;8.95;;
7334;SDS011;3708;42.632;23.378;2024-03-06T04:25:55;18.92;;;7.88;;
7334;SDS011;3708;42.632;23.378;2024-03-06T04:28:20;18.17;;;8.15;;
7334;SDS011;3708;42.632;23.378;2024-03-06T04:30:46;21.80;;;8.90;;
7334;SDS011;3708;42.632;23.378;2024-03-06T04:33:12;16.88;;;8.80;;
7334;SDS011;3708;42.632;23.378;2024-03-06T04:35:40;17.85;;;9.15;;
7334;SDS011;3708;42.632;23.378;2024-03-06T04:38:06;16.63;;;9.52;;
7334;SDS011;3708;42.632;23.378;2024-03-06T04:40:32;20.45;;;10.45;;
7334;SDS011;3708;42.632;23.378;2024-03-06T04:42:59;19.83;;;10.05;;
7334;SDS011;3708;42.632;23.378;2024-03-06T04:45:27;24.08;;;11.85;;
7334;SDS011;3708;42.632;23.378;2024-03-06T04:47:54;20.45;;;10.27;;
7334;SDS011;3708;42.632;23.378;2024-03-06T04:50:20;18.20;;;9.90;;
7334;SDS011;3708;42.632;23.378;2024-03-06T04:52:46;21.98;;;10.95;;
7334;SDS011;3708;42.632;23.378;2024-03-06T04:55:11;19.92;;;9.95;;
7334;SDS011;3708;42.632;23.378;2024-03-06T04:57:39;20.77;;;11.05;;
7334;SDS011;3708;42.632;23.378;2024-03-06T05:00:11;19.48;;;10.25;;
7334;SDS011;3708;42.632;23.378;2024-03-06T05:02:37;26.05;;;11.57;;
7334;SDS011;3708;42.632;23.378;2024-03-06T05:05:03;19.10;;;10.10;;
7334;SDS011;3708;42.632;23.378;2024-03-06T05:07:32;24.60;;;11.13;;
7334;SDS011;3708;42.632;23.378;2024-03-06T05:09:58;20.30;;;11.50;;
7334;SDS011;3708;42.632;23.378;2024-03-06T05:12:24;18.90;;;9.40;;
7334;SDS011;3708;42.632;23.378;2024-03-06T05:14:50;30.33;;;12.45;;
7334;SDS011;3708;42.632;23.378;2024-03-06T05:17:17;22.77;;;10.27;;
7334;SDS011;3708;42.632;23.378;2024-03-06T05:19:43;25.00;;;11.70;;
7334;SDS011;3708;42.632;23.378;2024-03-06T05:22:09;23.33;;;11.32;;
7334;SDS011;3708;42.632;23.378;2024-03-06T05:24:36;21.88;;;10.80;;
7334;SDS011;3708;42.632;23.378;2024-03-06T05:27:02;27.17;;;11.75;;
7334;SDS011;3708;42.632;23.378;2024-03-06T05:29:28;29.63;;;13.38;;
7334;SDS011;3708;42.632;23.378;2024-03-06T05:31:53;30.98;;;11.88;;
7334;SDS011;3708;42.632;23.378;2024-03-06T05:34:21;25.98;;;12.45;;
7334;SDS011;3708;42.632;23.378;2024-03-06T05:39:13;21.83;;;9.73;;
7334;SDS011;3708;42.632;23.378;2024-03-06T05:41:39;28.70;;;12.25;;
7334;SDS011;3708;42.632;23.378;2024-03-06T05:46:31;22.75;;;10.85;;
7334;SDS011;3708;42.632;23.378;2024-03-06T05:48:57;22.08;;;9.95;;
7334;SDS011;3708;42.632;23.378;2024-03-06T05:51:23;21.90;;;10.32;;
7334;SDS011;3708;42.632;23.378;2024-03-06T05:53:49;17.63;;;9.85;;
7334;SDS011;3708;42.632;23.378;2024-03-06T05:56:14;17.90;;;9.43;;
7334;SDS011;3708;42.632;23.378;2024-03-06T05:58:40;29.42;;;10.30;;
7334;SDS011;3708;42.632;23.378;2024-03-06T06:01:05;25.27;;;11.13;;
7334;SDS011;3708;42.632;23.378;2024-03-06T06:03:31;18.05;;;9.48;;
7334;SDS011;3708;42.632;23.378;2024-03-06T06:05:57;20.58;;;10.13;;
7334;SDS011;3708;42.632;23.378;2024-03-06T06:08:23;19.17;;;9.45;;
7334;SDS011;3708;42.632;23.378;2024-03-06T06:10:49;17.20;;;8.60;;
7334;SDS011;3708;42.632;23.378;2024-03-06T06:13:19;20.15;;;8.25;;
7334;SDS011;3708;42.632;23.378;2024-03-06T06:15:46;17.40;;;7.78;;
7334;SDS011;3708;42.632;23.378;2024-03-06T06:18:12;17.33;;;7.85;;
7334;SDS011;3708;42.632;23.378;2024-03-06T06:20:37;12.07;;;7.22;;
7334;SDS011;3708;42.632;23.378;2024-03-06T06:23:04;14.48;;;7.50;;
7334;SDS011;3708;42.632;23.378;2024-03-06T06:25:29;17.88;;;7.50;;
7334;SDS011;3708;42.632;23.378;2024-03-06T06:27:55;20.23;;;8.10;;
7334;SDS011;3708;42.632;23.378;2024-03-06T06:30:20;16.42;;;7.78;;
7334;SDS011;3708;42.632;23.378;2024-03-06T06:32:46;14.40;;;8.15;;
7334;SDS011;3708;42.632;23.378;2024-03-06T06:35:12;20.65;;;8.07;;
7334;SDS011;3708;42.632;23.378;2024-03-06T06:37:40;25.20;;;9.55;;
7334;SDS011;3708;42.632;23.378;2024-03-06T06:40:07;23.55;;;8.55;;
7334;SDS011;3708;42.632;23.378;2024-03-06T06:42:36;20.33;;;9.00;;
7334;SDS011;3708;42.632;23.378;2024-03-06T06:45:03;12.27;;;6.97;;
7334;SDS011;3708;42.632;23.378;2024-03-06T06:47:31;19.30;;;7.85;;
7334;SDS011;3708;42.632;23.378;2024-03-06T06:49:57;17.48;;;7.93;;
7334;SDS011;3708;42.632;23.378;2024-03-06T06:52:22;19.50;;;8.43;;
7334;SDS011;3708;42.632;23.378;2024-03-06T06:54:48;13.00;;;6.88;;
7334;SDS011;3708;42.632;23.378;2024-03-06T06:57:15;11.98;;;6.80;;
7334;SDS011;3708;42.632;23.378;2024-03-06T06:59:40;14.48;;;7.22;;
7334;SDS011;3708;42.632;23.378;2024-03-06T07:02:06;11.10;;;5.88;;
7334;SDS011;3708;42.632;23.378;2024-03-06T07:04:32;15.40;;;8.25;;
7334;SDS011;3708;42.632;23.378;2024-03-06T07:06:57;25.77;;;11.00;;
7334;SDS011;3708;42.632;23.378;2024-03-06T07:09:23;31.73;;;13.25;;
7334;SDS011;3708;42.632;23.378;2024-03-06T07:11:48;27.92;;;13.55;;
7334;SDS011;3708;42.632;23.378;2024-03-06T07:14:14;26.27;;;13.73;;
7334;SDS011;3708;42.632;23.378;2024-03-06T07:16:44;27.63;;;13.73;;
7334;SDS011;3708;42.632;23.378;2024-03-06T07:19:10;29.65;;;14.10;;
7334;SDS011;3708;42.632;23.378;2024-03-06T07:21:36;24.98;;;12.35;;
7334;SDS011;3708;42.632;23.378;2024-03-06T07:24:03;33.22;;;14.32;;
7334;SDS011;3708;42.632;23.378;2024-03-06T07:26:29;27.80;;;13.15;;
7334;SDS011;3708;42.632;23.378;2024-03-06T07:28:58;28.58;;;12.27;;
7334;SDS011;3708;42.632;23.378;2024-03-06T07:31:24;26.73;;;12.80;;
7334;SDS011;3708;42.632;23.378;2024-03-06T07:33:50;25.92;;;11.60;;
7334;SDS011;3708;42.632;23.378;2024-03-06T07:36:16;25.63;;;12.05;;
7334;SDS011;3708;42.632;23.378;2024-03-06T07:38:42;23.48;;;12.20;;
7334;SDS011;3708;42.632;23.378;2024-03-06T07:41:08;19.85;;;12.25;;
7334;SDS011;3708;42.632;23.378;2024-03-06T07:43:35;23.75;;;11.48;;
7334;SDS011;3708;42.632;23.378;2024-03-06T07:46:01;28.45;;;12.65;;
7334;SDS011;3708;42.632;23.378;2024-03-06T07:48:26;24.45;;;11.10;;
7334;SDS011;3708;42.632;23.378;2024-03-06T07:50:52;23.23;;;11.70;;
7334;SDS011;3708;42.632;23.378;2024-03-06T07:53:18;24.27;;;11.65;;
7334;SDS011;3708;42.632;23.378;2024-03-06T07:55:43;22.58;;;12.15;;
7334;SDS011;3708;42.632;23.378;2024-03-06T07:58:09;22.13;;;11.60;;
7334;SDS011;3708;42.632;23.378;2024-03-06T08:00:35;23.27;;;11.93;;
7334;SDS011;3708;42.632;23.378;2024-03-06T08:03:01;23.17;;;12.45;;
7334;SDS011;3708;42.632;23.378;2024-03-06T08:05:29;22.50;;;12.15;;
7334;SDS011;3708;42.632;23.378;2024-03-06T08:07:55;24.52;;;11.55;;
7334;SDS011;3708;42.632;23.378;2024-03-06T08:10:23;25.60;;;12.57;;
7334;SDS011;3708;42.632;23.378;2024-03-06T08:12:52;24.60;;;12.68;;
7334;SDS011;3708;42.632;23.378;2024-03-06T08:15:18;22.90;;;12.25;;
7334;SDS011;3708;42.632;23.378;2024-03-06T08:17:43;25.75;;;11.90;;
7334;SDS011;3708;42.632;23.378;2024-03-06T08:20:10;25.58;;;12.20;;
7334;SDS011;3708;42.632;23.378;2024-03-06T08:22:40;20.30;;;11.43;;
7334;SDS011;3708;42.632;23.378;2024-03-06T08:25:07;23.48;;;11.25;;
7334;SDS011;3708;42.632;23.378;2024-03-06T08:27:38;23.77;;;12.02;;
7334;SDS011;3708;42.632;23.378;2024-03-06T08:30:05;25.38;;;11.82;;
7334;SDS011;3708;42.632;23.378;2024-03-06T08:32:35;27.35;;;12.32;;
7334;SDS011;3708;42.632;23.378;2024-03-06T08:35:02;25.70;;;12.25;;
7334;SDS011;3708;42.632;23.378;2024-03-06T08:37:31;22.48;;;11.48;;
7334;SDS011;3708;42.632;23.378;2024-03-06T08:40:00;21.17;;;11.45;;
7334;SDS011;3708;42.632;23.378;2024-03-06T08:42:27;21.13;;;11.30;;
7334;SDS011;3708;42.632;23.378;2024-03-06T08:47:18;21.88;;;11.13;;
7334;SDS011;3708;42.632;23.378;2024-03-06T08:49:44;22.42;;;11.07;;
7334;SDS011;3708;42.632;23.378;2024-03-06T08:52:10;19.00;;;10.90;;
7334;SDS011;3708;42.632;23.378;2024-03-06T08:54:36;20.98;;;10.25;;
7334;SDS011;3708;42.632;23.378;2024-03-06T08:57:02;20.63;;;10.52;;
7334;SDS011;3708;42.632;23.378;2024-03-06T08:59:29;16.48;;;8.70;;
7334;SDS011;3708;42.632;23.378;2024-03-06T09:01:55;17.10;;;9.13;;
7334;SDS011;3708;42.632;23.378;2024-03-06T09:04:21;18.33;;;10.10;;
7334;SDS011;3708;42.632;23.378;2024-03-06T09:06:47;17.98;;;10.02;;
7334;SDS011;3708;42.632;23.378;2024-03-06T09:09:16;18.20;;;10.30;;
7334;SDS011;3708;42.632;23.378;2024-03-06T09:11:42;17.52;;;9.15;;
7334;SDS011;3708;42.632;23.378;2024-03-06T09:14:08;21.17;;;9.68;;
7334;SDS011;3708;42.632;23.378;2024-03-06T09:16:36;16.83;;;9.80;;
7334;SDS011;3708;42.632;23.378;2024-03-06T09:19:02;20.00;;;10.27;;
7334;SDS011;3708;42.632;23.378;2024-03-06T09:21:28;24.10;;;11.00;;
7334;SDS011;3708;42.632;23.378;2024-03-06T09:23:54;21.08;;;12.07;;
7334;SDS011;3708;42.632;23.378;2024-03-06T09:26:22;21.38;;;10.88;;
7334;SDS011;3708;42.632;23.378;2024-03-06T09:28:48;23.63;;;11.95;;
7334;SDS011;3708;42.632;23.378;2024-03-06T09:31:17;23.55;;;12.23;;
7334;SDS011;3708;42.632;23.378;2024-03-06T09:33:44;23.27;;;11.80;;
7334;SDS011;3708;42.632;23.378;2024-03-06T09:36:11;23.90;;;11.52;;
7334;SDS011;3708;42.632;23.378;2024-03-06T09:38:39;23.20;;;11.63;;
7334;SDS011;3708;42.632;23.378;2024-03-06T09:41:06;22.92;;;11.25;;
7334;SDS011;3708;42.632;23.378;2024-03-06T09:43:33;21.75;;;10.70;;
7334;SDS011;3708;42.632;23.378;2024-03-06T09:48:33;19.42;;;10.15;;
7334;SDS011;3708;42.632;23.378;2024-03-06T09:51:02;21.30;;;9.27;;
7334;SDS011;3708;42.632;23.378;2024-03-06T09:53:31;17.60;;;10.18;;
7334;SDS011;3708;42.632;23.378;2024-03-06T09:55:56;16.33;;;9.60;;
7334;SDS011;3708;42.632;23.378;2024-03-06T09:58:23;18.70;;;9.57;;
7334;SDS011;3708;42.632;23.378;2024-03-06T10:00:53;13.55;;;7.82;;
7334;SDS011;3708;42.632;23.378;2024-03-06T10:03:21;13.35;;;7.35;;
7334;SDS011;3708;42.632;23.378;2024-03-06T10:05:47;17.48;;;7.07;;
7334;SDS011;3708;42.632;23.378;2024-03-06T10:08:13;11.38;;;7.45;;
7334;SDS011;3708;42.632;23.378;2024-03-06T10:10:41;14.13;;;7.40;;
7334;SDS011;3708;42.632;23.378;2024-03-06T10:13:08;16.40;;;8.10;;
7334;SDS011;3708;42.632;23.378;2024-03-06T10:15:36;12.38;;;7.53;;
7334;SDS011;3708;42.632;23.378;2024-03-06T10:18:10;12.50;;;7.45;;
7334;SDS011;3708;42.632;23.378;2024-03-06T10:20:40;16.05;;;7.65;;
7334;SDS011;3708;42.632;23.378;2024-03-06T10:23:10;12.60;;;7.38;;
7334;SDS011;3708;42.632;23.378;2024-03-06T10:25:36;12.70;;;8.07;;
7334;SDS011;3708;42.632;23.378;2024-03-06T10:28:08;25.10;;;8.57;;
7334;SDS011;3708;42.632;23.378;2024-03-06T10:30:36;13.13;;;8.25;;
7334;SDS011;3708;42.632;23.378;2024-03-06T10:33:03;12.05;;;7.32;;
7334;SDS011;3708;42.632;23.378;2024-03-06T10:35:30;12.27;;;6.18;;
7334;SDS011;3708;42.632;23.378;2024-03-06T10:37:56;12.18;;;7.30;;
7334;SDS011;3708;42.632;23.378;2024-03-06T10:40:26;12.60;;;7.40;;
7334;SDS011;3708;42.632;23.378;2024-03-06T10:42:55;11.50;;;6.72;;
7334;SDS011;3708;42.632;23.378;2024-03-06T10:45:21;8.40;;;5.57;;
7334;SDS011;3708;42.632;23.378;2024-03-06T10:47:53;10.32;;;6.00;;
7334;SDS011;3708;42.632;23.378;2024-03-06T10:50:20;14.05;;;6.25;;
7334;SDS011;3708;42.632;23.378;2024-03-06T10:52:58;12.23;;;6.22;;
7334;SDS011;3708;42.632;23.378;2024-03-06T10:55:30;13.60;;;6.07;;
7334;SDS011;3708;42.632;23.378;2024-03-06T10:57:59;7.55;;;5.85;;
7334;SDS011;3708;42.632;23.378;2024-03-06T11:00:25;13.25;;;6.10;;
7334;SDS011;3708;42.632;23.378;2024-03-06T11:02:55;9.35;;;5.20;;
7334;SDS011;3708;42.632;23.378;2024-03-06T11:05:23;7.75;;;5.63;;
7334;SDS011;3708;42.632;23.378;2024-03-06T11:07:49;9.43;;;5.00;;
7334;SDS011;3708;42.632;23.378;2024-03-06T11:10:29;10.20;;;4.55;;
7334;SDS011;3708;42.632;23.378;2024-03-06T11:12:58;6.53;;;4.93;;
7334;SDS011;3708;42.632;23.378;2024-03-06T11:15:24;7.97;;;5.20;;
7334;SDS011;3708;42.632;23.378;2024-03-06T11:17:50;11.07;;;5.20;;
7334;SDS011;3708;42.632;23.378;2024-03-06T11:20:19;4.82;;;4.30;;
7334;SDS011;3708;42.632;23.378;2024-03-06T11:28:25;5.30;;;4.53;;
7334;SDS011;3708;42.632;23.378;2024-03-06T11:31:05;7.05;;;5.05;;
7334;SDS011;3708;42.632;23.378;2024-03-06T11:33:37;12.23;;;6.20;;
7334;SDS011;3708;42.632;23.378;2024-03-06T11:36:24;11.45;;;6.13;;
7334;SDS011;3708;42.632;23.378;2024-03-06T11:38:57;9.13;;;5.22;;
7334;SDS011;3708;42.632;23.378;2024-03-06T11:41:46;6.00;;;5.00;;
7334;SDS011;3708;42.632;23.378;2024-03-06T11:44:14;8.20;;;6.05;;
7334;SDS011;3708;42.632;23.378;2024-03-06T11:46:48;7.38;;;4.72;;
7334;SDS011;3708;42.632;23.378;2024-03-06T11:49:21;8.80;;;5.30;;
7334;SDS011;3708;42.632;23.378;2024-03-06T11:51:57;14.85;;;6.00;;
7334;SDS011;3708;42.632;23.378;2024-03-06T11:54:30;7.07;;;5.20;;
7334;SDS011;3708;42.632;23.378;2024-03-06T11:57:03;6.15;;;4.90;;
7334;SDS011;3708;42.632;23.378;2024-03-06T11:59:33;6.85;;;5.28;;
7334;SDS011;3708;42.632;23.378;2024-03-06T12:02:01;6.22;;;4.32;;
7334;SDS011;3708;42.632;23.378;2024-03-06T12:04:33;7.43;;;5.05;;
7334;SDS011;3708;42.632;23.378;2024-03-06T12:07:02;5.53;;;4.82;;
7334;SDS011;3708;42.632;23.378;2024-03-06T12:09:31;9.15;;;5.75;;
7334;SDS011;3708;42.632;23.378;2024-03-06T12:11:58;6.97;;;5.05;;
7334;SDS011;3708;42.632;23.378;2024-03-06T12:16:59;10.73;;;5.28;;
7334;SDS011;3708;42.632;23.378;2024-03-06T12:19:32;6.55;;;5.40;;
7334;SDS011;3708;42.632;23.378;2024-03-06T12:21:59;10.05;;;5.00;;
7334;SDS011;3708;42.632;23.378;2024-03-06T12:24:25;8.00;;;4.70;;
7334;SDS011;3708;42.632;23.378;2024-03-06T12:29:27;8.15;;;4.60;;
7334;SDS011;3708;42.632;23.378;2024-03-06T12:31:54;6.72;;;4.68;;
7334;SDS011;3708;42.632;23.378;2024-03-06T12:34:22;6.28;;;5.28;;
7334;SDS011;3708;42.632;23.378;2024-03-06T12:36:47;9.55;;;4.78;;
7334;SDS011;3708;42.632;23.378;2024-03-06T12:39:14;7.10;;;5.20;;
7334;SDS011;3708;42.632;23.378;2024-03-06T12:41:43;7.05;;;5.03;;
7334;SDS011;3708;42.632;23.378;2024-03-06T12:44:12;8.65;;;5.22;;
7334;SDS011;3708;42.632;23.378;2024-03-06T12:46:37;14.93;;;5.43;;
7334;SDS011;3708;42.632;23.378;2024-03-06T12:49:03;6.93;;;5.10;;
7334;SDS011;3708;42.632;23.378;2024-03-06T12:51:28;8.00;;;5.35;;
7334;SDS011;3708;42.632;23.378;2024-03-06T12:53:54;8.25;;;5.38;;
7334;SDS011;3708;42.632;23.378;2024-03-06T12:58:45;6.82;;;5.00;;
7334;SDS011;3708;42.632;23.378;2024-03-06T13:03:36;6.00;;;4.60;;
7334;SDS011;3708;42.632;23.378;2024-03-06T13:06:02;9.90;;;4.32;;
7334;SDS011;3708;42.632;23.378;2024-03-06T13:08:29;7.15;;;4.00;;
7334;SDS011;3708;42.632;23.378;2024-03-06T13:10:55;6.88;;;4.47;;
7334;SDS011;3708;42.632;23.378;2024-03-06T13:13:21;9.50;;;4.13;;
7334;SDS011;3708;42.632;23.378;2024-03-06T13:15:49;6.97;;;4.40;;
7334;SDS011;3708;42.632;23.378;2024-03-06T13:18:15;10.88;;;4.45;;
7334;SDS011;3708;42.632;23.378;2024-03-06T13:20:41;6.50;;;4.63;;
7334;SDS011;3708;42.632;23.378;2024-03-06T13:23:06;12.43;;;4.53;;
7334;SDS011;3708;42.632;23.378;2024-03-06T13:25:32;9.18;;;4.22;;
7334;SDS011;3708;42.632;23.378;2024-03-06T13:27:57;5.25;;;4.18;;
7334;SDS011;3708;42.632;23.378;2024-03-06T13:30:24;4.75;;;4.22;;
7334;SDS011;3708;42.632;23.378;2024-03-06T13:32:51;7.43;;;4.20;;
7334;SDS011;3708;42.632;23.378;2024-03-06T13:35:16;3.95;;;3.10;;
7334;SDS011;3708;42.632;23.378;2024-03-06T13:40:08;6.35;;;3.53;;
7334;SDS011;3708;42.632;23.378;2024-03-06T13:42:38;4.25;;;3.70;;
7334;SDS011;3708;42.632;23.378;2024-03-06T13:45:06;4.45;;;3.70;;
7334;SDS011;3708;42.632;23.378;2024-03-06T13:47:42;10.25;;;4.40;;
7334;SDS011;3708;42.632;23.378;2024-03-06T13:50:12;4.43;;;3.45;;
7334;SDS011;3708;42.632;23.378;2024-03-06T13:52:39;8.27;;;3.85;;
7334;SDS011;3708;42.632;23.378;2024-03-06T13:55:05;4.03;;;3.67;;
7334;SDS011;3708;42.632;23.378;2024-03-06T13:57:53;7.63;;;3.28;;
7334;SDS011;3708;42.632;23.378;2024-03-06T14:00:18;5.72;;;3.78;;
7334;SDS011;3708;42.632;23.378;2024-03-06T14:02:44;6.28;;;3.65;;
7334;SDS011;3708;42.632;23.378;2024-03-06T14:05:13;11.50;;;3.72;;
7334;SDS011;3708;42.632;23.378;2024-03-06T14:07:50;4.30;;;3.75;;
7334;SDS011;3708;42.632;23.378;2024-03-06T14:10:22;3.90;;;3.50;;
7334;SDS011;3708;42.632;23.378;2024-03-06T14:12:51;3.80;;;3.47;;
7334;SDS011;3708;42.632;23.378;2024-03-06T14:15:20;4.28;;;3.65;;
7334;SDS011;3708;42.632;23.378;2024-03-06T14:17:53;5.65;;;3.78;;
7334;SDS011;3708;42.632;23.378;2024-03-06T14:20:22;5.28;;;3.53;;
7334;SDS011;3708;42.632;23.378;2024-03-06T14:22:51;11.85;;;4.45;;
7334;SDS011;3708;42.632;23.378;2024-03-06T14:25:26;5.95;;;4.00;;
7334;SDS011;3708;42.632;23.378;2024-03-06T14:27:51;5.50;;;4.30;;
7334;SDS011;3708;42.632;23.378;2024-03-06T14:30:17;5.72;;;4.47;;
7334;SDS011;3708;42.632;23.378;2024-03-06T14:32:52;3.58;;;3.15;;
7334;SDS011;3708;42.632;23.378;2024-03-06T14:35:18;6.28;;;3.88;;
7334;SDS011;3708;42.632;23.378;2024-03-06T14:38:00;4.68;;;2.92;;
7334;SDS011;3708;42.632;23.378;2024-03-06T14:40:31;4.45;;;3.75;;
7334;SDS011;3708;42.632;23.378;2024-03-06T14:43:06;5.63;;;3.75;;
7334;SDS011;3708;42.632;23.378;2024-03-06T14:45:35;9.10;;;4.03;;
7334;SDS011;3708;42.632;23.378;2024-03-06T14:48:12;8.02;;;3.65;;
7334;SDS011;3708;42.632;23.378;2024-03-06T14:50:38;3.90;;;3.53;;
7334;SDS011;3708;42.632;23.378;2024-03-06T14:53:04;5.82;;;3.55;;
7334;SDS011;3708;42.632;23.378;2024-03-06T14:55:30;5.43;;;4.25;;
7334;SDS011;3708;42.632;23.378;2024-03-06T14:58:05;10.77;;;3.15;;
7334;SDS011;3708;42.632;23.378;2024-03-06T15:00:31;3.05;;;2.78;;
7334;SDS011;3708;42.632;23.378;2024-03-06T15:02:57;5.13;;;2.88;;
7334;SDS011;3708;42.632;23.378;2024-03-06T15:05:27;4.97;;;3.70;;
7334;SDS011;3708;42.632;23.378;2024-03-06T15:07:57;5.80;;;4.18;;
7334;SDS011;3708;42.632;23.378;2024-03-06T15:10:31;9.00;;;4.43;;
7334;SDS011;3708;42.632;23.378;2024-03-06T15:13:37;4.75;;;3.90;;
7334;SDS011;3708;42.632;23.378;2024-03-06T15:16:03;6.22;;;4.32;;
7334;SDS011;3708;42.632;23.378;2024-03-06T15:18:33;4.53;;;3.92;;